Time;durP1;ratioP1;P1;durP2;ratioP2;P2;SDS_P1;SDS_P2;PMS_P1;PMS_P2;Temp;Humidity;BMP_temperature;BMP_pressure;BME280_temperature;BME280_humidity;BME280_pressure;Samples;Min_cycle;Max_cycle;Signal;HPM_P1;HPM_P2
2021/12/10 00:00:30;;;;;;;;;;;;;;;26.23;61.22;101243.25;5075148;27;69983;-33
2021/12/10 00:03:01;;;;;;;;;;;;;;;26.13;61.52;101253.41;5077786;27;66819;-33
2021/12/10 00:05:34;;;;;;;;;;;;;;;26.17;61.80;101246.69;5079716;27;70192;-33
2021/12/10 00:08:06;;;;;;;;;;;;;;;26.29;62.28;101247.91;5079563;27;67409;-33
2021/12/10 00:10:39;;;;;;;;;;;;;;;26.40;62.64;101251.19;5070372;27;70225;-33
2021/12/10 00:13:09;;;;;;;;;;;;;;;26.50;63.42;101243.72;5077936;27;66507;-33
2021/12/10 00:16:09;;;;;;;;;;;;;;;26.56;63.63;101243.03;5083949;27;69083;-34
2021/12/10 00:18:45;;;;;;;;;;;;;;;26.67;63.92;101257.88;5059036;28;66648;-32
2021/12/10 00:21:15;;;;;;;;;;;;;;;26.73;63.81;101260.69;5080744;27;69474;-35
2021/12/10 00:23:49;;;;;;;;;;;;;;;26.79;64.02;101258.28;5082131;28;66494;-34
2021/12/10 00:26:23;;;;;;;;;;;;;;;26.80;64.22;101255.41;5079416;28;70353;-33
2021/12/10 00:29:01;;;;;;;;;;;;;;;26.88;64.36;101271.44;5080736;27;66427;-33
2021/12/10 00:34:11;;;;;;;;;;;;;;;26.99;62.94;101275.56;5083146;27;66537;-33
2021/12/10 00:36:42;;;;;;;;;;;;;;;27.03;62.76;101282.25;5080245;27;70343;-33
2021/12/10 00:39:14;;;;;;;;;;;;;;;27.07;62.58;101282.72;5082778;27;65239;-33
2021/12/10 00:41:45;;;;;;;;;;;;;;;27.09;62.54;101276.13;5082992;27;70052;-33
2021/12/10 00:44:15;;;;;;;;;;;;;;;27.12;62.36;101275.75;5081426;27;66272;-33
2021/12/10 00:46:46;;;;;;;;;;;;;;;27.14;62.22;101279.09;5068725;27;69222;-35
2021/12/10 00:49:16;;;;;;;;;;;;;;;27.17;62.16;101283.31;5083283;27;66040;-34
2021/12/10 00:51:47;;;;;;;;;;;;;;;27.20;62.06;101284.81;5063832;28;70478;-33
2021/12/10 00:54:19;;;;;;;;;;;;;;;27.20;62.21;101284.81;5065382;28;65303;-33
2021/12/10 00:56:50;;;;;;;;;;;;;;;27.22;61.97;101280.03;5083948;27;70139;-33
2021/12/10 00:59:20;;;;;;;;;;;;;;;27.24;61.96;101292.31;5082776;27;65564;-33
2021/12/10 01:01:51;;;;;;;;;;;;;;;27.25;61.85;101288.59;5081986;27;69920;-34
2021/12/10 01:04:27;;;;;;;;;;;;;;;27.27;62.14;101285.72;5083414;27;66640;-33
2021/12/10 01:06:59;;;;;;;;;;;;;;;27.27;62.03;101289.25;5084084;27;70364;-33
2021/12/10 01:09:47;;;;;;;;;;;;;;;27.29;61.86;101297.16;5083062;27;66559;-33
2021/12/10 01:12:21;;;;;;;;;;;;;;;27.30;61.84;101302.38;5068742;27;69579;-36
2021/12/10 01:15:08;;;;;;;;;;;;;;;27.31;61.75;101300.50;5082334;27;64454;-34
2021/12/10 01:23:48;;;;;;;;;;;;;;;27.34;61.62;101302.81;5082506;27;69940;-34
2021/12/10 01:26:53;;;;;;;;;;;;;;;27.32;61.64;101302.16;5068526;27;66978;-35
2021/12/10 01:29:34;;;;;;;;;;;;;;;27.37;61.67;101310.53;5082966;27;70333;-33
2021/12/10 01:32:07;;;;;;;;;;;;;;;27.38;61.43;101313.00;5083595;27;66536;-35
2021/12/10 01:34:37;;;;;;;;;;;;;;;27.39;61.46;101308.47;5081811;27;70372;-35
2021/12/10 01:37:09;;;;;;;;;;;;;;;27.40;61.29;101304.75;5080088;27;66755;-33
2021/12/10 01:39:42;;;;;;;;;;;;;;;27.42;61.44;101305.41;5080584;27;70135;-34
2021/12/10 01:42:17;;;;;;;;;;;;;;;27.40;61.48;101302.91;5084267;27;66240;-34
2021/12/10 01:44:51;;;;;;;;;;;;;;;27.45;61.38;101305.03;5083194;27;70620;-33
2021/12/10 01:47:37;;;;;;;;;;;;;;;27.46;61.19;101301.31;5081028;27;66844;-32
2021/12/10 01:50:08;;;;;;;;;;;;;;;27.47;61.40;101305.69;5086259;27;70096;-33
2021/12/10 01:52:38;;;;;;;;;;;;;;;27.48;61.37;101310.06;5080798;27;65900;-33
2021/12/10 01:55:14;;;;;;;;;;;;;;;27.50;61.27;101308.00;5080386;27;70201;-32
2021/12/10 01:57:44;;;;;;;;;;;;;;;27.51;61.10;101300.75;5082301;27;66725;-33
2021/12/10 02:00:16;;;;;;;;;;;;;;;27.51;61.27;101296.19;5078763;27;70304;-34
2021/12/10 02:02:47;;;;;;;;;;;;;;;27.53;61.21;101294.16;5082102;27;66281;-37
2021/12/10 02:05:34;;;;;;;;;;;;;;;27.56;61.20;101299.16;5080463;27;70597;-33
2021/12/10 02:08:04;;;;;;;;;;;;;;;27.57;61.16;101295.44;5082057;27;66269;-33
2021/12/10 02:10:35;;;;;;;;;;;;;;;27.58;61.08;101297.13;5079745;27;69232;-32
2021/12/10 02:13:05;;;;;;;;;;;;;;;27.61;61.27;101298.63;5078926;27;65535;-33
2021/12/10 02:15:35;;;;;;;;;;;;;;;27.62;61.19;101276.84;5076793;27;70161;-32
2021/12/10 02:18:07;;;;;;;;;;;;;;;27.65;60.90;101290.97;5081777;27;65508;-33
2021/12/10 02:20:55;;;;;;;;;;;;;;;27.62;60.75;101282.25;5080261;27;70550;-33
2021/12/10 02:23:26;;;;;;;;;;;;;;;27.67;60.82;101288.94;5080225;27;66025;-33
2021/12/10 02:25:57;;;;;;;;;;;;;;;27.68;61.20;101285.22;5079134;27;70288;-34
2021/12/10 02:28:28;;;;;;;;;;;;;;;27.70;60.79;101277.78;5081072;27;66230;-37
2021/12/10 02:30:59;;;;;;;;;;;;;;;27.72;60.77;101271.19;5095069;27;70066;-33
2021/12/10 02:33:30;;;;;;;;;;;;;;;27.74;60.85;101279.06;5080709;27;66276;-34
2021/12/10 02:36:00;;;;;;;;;;;;;;;27.75;60.86;101276.19;5079746;27;69680;-33
2021/12/10 02:38:31;;;;;;;;;;;;;;;27.78;60.67;101277.66;5080829;27;66268;-34
2021/12/10 02:41:01;;;;;;;;;;;;;;;27.80;60.68;101278.31;5080947;27;70170;-33
2021/12/10 02:43:31;;;;;;;;;;;;;;;27.82;60.63;101270.88;5082144;27;66066;-33
2021/12/10 02:46:02;;;;;;;;;;;;;;;27.76;60.44;101256.28;5082031;27;69263;-33
2021/12/10 02:48:33;;;;;;;;;;;;;;;27.86;60.64;101266.81;5081564;27;65747;-33
2021/12/10 02:51:06;;;;;;;;;;;;;;;27.88;60.48;101264.72;5081706;27;68996;-34
2021/12/10 02:53:41;;;;;;;;;;;;;;;27.91;60.60;101269.75;5079167;27;65754;-33
2021/12/10 02:56:14;;;;;;;;;;;;;;;27.92;60.57;101260.66;5081925;27;69659;-35
2021/12/10 02:58:45;;;;;;;;;;;;;;;27.94;60.53;101247.78;5079501;27;65546;-33
2021/12/10 03:01:22;;;;;;;;;;;;;;;27.96;60.57;101245.75;5079848;27;69330;-33
2021/12/10 03:03:53;;;;;;;;;;;;;;;27.99;60.60;101236.44;5080122;27;65626;-34
2021/12/10 03:06:24;;;;;;;;;;;;;;;28.01;60.65;101237.91;5080787;27;70361;-34
2021/12/10 03:08:56;;;;;;;;;;;;;;;28.04;60.24;101242.09;5082113;27;66384;-34
2021/12/10 03:11:30;;;;;;;;;;;;;;;28.00;60.35;101224.59;5081399;27;70327;-35
2021/12/10 03:14:06;;;;;;;;;;;;;;;28.07;60.61;101229.03;5077210;27;65377;-34
2021/12/10 03:16:40;;;;;;;;;;;;;;;28.10;60.46;101232.38;5080967;27;69172;-34
2021/12/10 03:19:11;;;;;;;;;;;;;;;28.10;60.40;101229.69;5081932;27;66969;-33
2021/12/10 03:21:44;;;;;;;;;;;;;;;28.15;60.50;101227.25;5080537;27;70289;-32
2021/12/10 03:24:16;;;;;;;;;;;;;;;28.16;60.54;101212.72;5080543;27;67025;-33
2021/12/10 03:26:46;;;;;;;;;;;;;;;28.19;60.43;101212.34;5080559;27;70101;-33
2021/12/10 03:29:16;;;;;;;;;;;;;;;28.21;60.34;101215.69;5080132;27;66298;-34
2021/12/10 03:31:47;;;;;;;;;;;;;;;28.24;60.23;101210.72;5080910;27;70875;-34
2021/12/10 03:34:19;;;;;;;;;;;;;;;28.26;60.21;101213.25;5078411;27;66447;-34
2021/12/10 03:36:51;;;;;;;;;;;;;;;28.29;60.31;101212.84;5076609;27;69967;-34
2021/12/10 03:39:23;;;;;;;;;;;;;;;28.32;60.31;101206.22;5081544;27;65257;-34
2021/12/10 03:41:56;;;;;;;;;;;;;;;28.34;60.13;101204.19;5079355;27;69145;-35
2021/12/10 03:44:27;;;;;;;;;;;;;;;28.35;60.13;101195.88;5079430;27;66486;-33
2021/12/10 03:46:58;;;;;;;;;;;;;;;28.37;60.14;101193.81;5080764;27;70728;-34
2021/12/10 03:49:28;;;;;;;;;;;;;;;28.41;59.98;101188.88;5085159;27;66741;-33
2021/12/10 03:51:59;;;;;;;;;;;;;;;28.43;60.10;101194.94;5087825;27;70146;-33
2021/12/10 03:54:30;;;;;;;;;;;;;;;28.45;60.27;101185.63;5089655;27;66262;-35
2021/12/10 03:57:00;;;;;;;;;;;;;;;28.47;59.84;101183.56;5087244;27;70671;-33
2021/12/10 03:59:30;;;;;;;;;;;;;;;28.50;60.02;101188.56;5087721;27;65956;-33
2021/12/10 04:02:01;;;;;;;;;;;;;;;28.54;59.80;101177.38;5086695;27;70693;-34
2021/12/10 04:04:38;;;;;;;;;;;;;;;28.56;59.85;101176.16;5087537;27;67390;-33
2021/12/10 04:07:11;;;;;;;;;;;;;;;28.59;59.75;101164.13;5087386;27;69316;-32
2021/12/10 04:09:41;;;;;;;;;;;;;;;28.62;59.93;101174.53;5084254;27;66354;-33
2021/12/10 04:12:13;;;;;;;;;;;;;;;28.65;59.76;101166.84;5085407;27;70089;-34
2021/12/10 04:14:44;;;;;;;;;;;;;;;28.68;59.64;101168.31;5080454;27;66622;-33
2021/12/10 04:17:14;;;;;;;;;;;;;;;28.70;59.69;101161.69;5087172;27;69499;-33
2021/12/10 04:19:46;;;;;;;;;;;;;;;28.73;59.68;101149.66;5098415;27;66300;-33
2021/12/10 04:22:18;;;;;;;;;;;;;;;28.75;59.75;101142.19;5086810;27;69532;-33
2021/12/10 04:24:48;;;;;;;;;;;;;;;28.78;59.62;101136.41;5087058;27;65761;-33
2021/12/10 04:27:18;;;;;;;;;;;;;;;28.81;59.67;101136.00;5086252;27;70258;-33
2021/12/10 04:29:52;;;;;;;;;;;;;;;28.84;59.68;101130.19;5087588;27;66323;-33
2021/12/10 04:32:23;;;;;;;;;;;;;;;28.88;59.81;101128.75;5086582;27;69342;-33
2021/12/10 04:34:54;;;;;;;;;;;;;;;28.90;59.36;101134.78;5085935;27;67335;-35
2021/12/10 04:37:24;;;;;;;;;;;;;;;28.93;59.28;101118.19;5084824;27;69368;-34
2021/12/10 04:39:54;;;;;;;;;;;;;;;28.94;59.70;101119.84;5071622;27;66325;-34
2021/12/10 04:42:26;;;;;;;;;;;;;;;28.99;59.75;101110.31;5072224;28;69964;-32
2021/12/10 04:44:57;;;;;;;;;;;;;;;29.01;59.41;101114.47;5085809;27;65579;-35
2021/12/10 04:47:28;;;;;;;;;;;;;;;29.05;59.38;101114.94;5097509;27;70205;-33
2021/12/10 04:49:59;;;;;;;;;;;;;;;29.09;59.09;101110.81;5087774;27;67464;-34
2021/12/10 04:52:29;;;;;;;;;;;;;;;29.11;59.15;101106.00;5085971;27;69362;-34
2021/12/10 04:55:00;;;;;;;;;;;;;;;29.14;59.51;101102.91;5086810;27;66170;-33
2021/12/10 04:57:30;;;;;;;;;;;;;;;29.18;58.96;101106.88;5087090;27;68986;-34
2021/12/10 05:00:01;;;;;;;;;;;;;;;29.22;58.96;101105.44;5065776;28;65328;-33
2021/12/10 05:02:33;;;;;;;;;;;;;;;29.25;59.30;101101.50;5083517;27;69033;-34
2021/12/10 05:05:05;;;;;;;;;;;;;;;29.27;59.16;101092.13;5083755;27;66626;-34
2021/12/10 05:07:37;;;;;;;;;;;;;;;29.30;59.20;101083.63;5082122;27;69806;-35
2021/12/10 05:10:09;;;;;;;;;;;;;;;29.33;59.14;101080.50;5081890;27;65771;-33
2021/12/10 05:12:39;;;;;;;;;;;;;;;29.35;59.20;101078.44;5082815;27;70334;-34
2021/12/10 05:15:13;;;;;;;;;;;;;;;29.38;58.97;101078.03;5083163;27;66357;-34
2021/12/10 05:17:43;;;;;;;;;;;;;;;29.40;59.01;101067.84;5088727;27;71188;-33
2021/12/10 05:20:50;;;;;;;;;;;;;;;29.45;58.98;101064.53;5086658;27;66183;-33
2021/12/10 05:23:46;;;;;;;;;;;;;;;29.49;59.05;101062.25;5082756;27;70640;-33
2021/12/10 05:26:45;;;;;;;;;;;;;;;29.53;58.76;101053.53;5081815;27;66028;-32
2021/12/10 05:29:40;;;;;;;;;;;;;;;29.55;59.15;101050.59;5081039;27;70438;-33
2021/12/10 05:32:29;;;;;;;;;;;;;;;29.59;59.15;101043.75;5079814;27;65840;-33
2021/12/10 05:35:19;;;;;;;;;;;;;;;29.61;59.08;101038.97;5093102;27;69681;-33
2021/12/10 05:38:22;;;;;;;;;;;;;;;29.64;59.04;101033.16;5056242;27;66035;-32
2021/12/10 05:40:53;;;;;;;;;;;;;;;29.66;58.62;101020.28;5082655;27;70051;-34
2021/12/10 05:43:23;;;;;;;;;;;;;;;29.69;58.59;101019.84;5082690;27;66265;-33
2021/12/10 05:45:54;;;;;;;;;;;;;;;29.71;58.63;101011.56;5081286;27;70233;-35
2021/12/10 05:48:24;;;;;;;;;;;;;;;29.73;58.50;101002.19;5068571;27;65969;-34
2021/12/10 05:50:54;;;;;;;;;;;;;;;29.76;58.41;100996.38;5082509;27;70050;-34
2021/12/10 05:53:25;;;;;;;;;;;;;;;29.78;58.47;100999.69;5081179;27;66777;-33
2021/12/10 05:55:55;;;;;;;;;;;;;;;29.81;58.42;100991.16;5083068;27;69879;-34
2021/12/10 05:58:26;;;;;;;;;;;;;;;29.83;58.37;100972.81;5082659;27;66553;-34
2021/12/10 06:01:02;;;;;;;;;;;;;;;29.87;58.41;100985.97;5080960;27;69980;-33
2021/12/10 06:03:34;;;;;;;;;;;;;;;29.89;58.20;100979.25;5082540;27;66532;-33
2021/12/10 06:06:05;;;;;;;;;;;;;;;29.90;58.67;100972.00;5082630;27;70304;-34
2021/12/10 06:08:36;;;;;;;;;;;;;;;29.95;58.26;100966.78;5082138;27;66814;-33
2021/12/10 06:11:07;;;;;;;;;;;;;;;29.93;58.47;100964.28;5082030;27;70537;-34
2021/12/10 06:13:37;;;;;;;;;;;;;;;30.00;58.58;100966.97;5081926;27;66443;-33
2021/12/10 06:16:07;;;;;;;;;;;;;;;29.98;58.13;100952.84;5081465;28;69846;-34
2021/12/10 06:18:38;;;;;;;;;;;;;;;30.05;58.19;100959.88;5080684;27;66859;-32
2021/12/10 06:21:09;;;;;;;;;;;;;;;30.09;58.18;100960.31;5065854;28;69982;-35
2021/12/10 06:23:39;;;;;;;;;;;;;;;30.11;58.48;100950.06;5081005;27;66270;-33
2021/12/10 06:26:10;;;;;;;;;;;;;;;30.14;57.86;100941.53;5081315;27;70071;-34
2021/12/10 06:28:45;;;;;;;;;;;;;;;30.18;58.37;100937.38;5078931;27;65588;-33
2021/12/10 06:31:16;;;;;;;;;;;;;;;30.20;58.19;100932.59;5075405;27;70170;-33
2021/12/10 06:33:47;;;;;;;;;;;;;;;30.23;58.28;100934.88;5077710;27;66415;-33
2021/12/10 06:36:19;;;;;;;;;;;;;;;30.26;58.15;100920.94;5075810;27;69729;-34
2021/12/10 06:38:49;;;;;;;;;;;;;;;30.30;57.74;100918.59;5077118;28;66155;-33
2021/12/10 06:41:20;;;;;;;;;;;;;;;30.28;58.16;100910.72;5080322;27;70135;-34
2021/12/10 06:44:15;;;;;;;;;;;;;;;30.37;57.71;100915.84;5080145;27;65670;-34
2021/12/10 06:46:45;;;;;;;;;;;;;;;30.41;57.55;100909.00;5079993;27;69632;-32
2021/12/10 06:49:16;;;;;;;;;;;;;;;30.45;57.66;100910.19;5079491;27;66746;-33
2021/12/10 06:51:46;;;;;;;;;;;;;;;30.47;57.51;100902.69;5061887;28;69102;-33
2021/12/10 06:54:17;;;;;;;;;;;;;;;30.53;57.90;100898.28;5078830;27;66459;-33
2021/12/10 06:56:47;;;;;;;;;;;;;;;30.53;57.39;100885.56;5079633;27;70203;-33
2021/12/10 06:59:17;;;;;;;;;;;;;;;30.59;57.86;100894.72;5080663;27;66898;-33
2021/12/10 07:01:47;;;;;;;;;;;;;;;30.61;57.38;100888.03;5079788;27;69528;-36
2021/12/10 07:04:19;;;;;;;;;;;;;;;30.62;57.47;100884.28;5062958;28;66539;-33
2021/12/10 07:06:49;;;;;;;;;;;;;;;30.67;57.33;100886.31;5081127;27;70866;-32
2021/12/10 07:09:21;;;;;;;;;;;;;;;30.70;57.48;100886.75;5080266;27;65404;-33
2021/12/10 07:11:52;;;;;;;;;;;;;;;30.71;57.42;100888.38;5080312;27;70582;-33
2021/12/10 07:14:23;;;;;;;;;;;;;;;30.73;57.48;100886.28;5081097;27;66457;-33
2021/12/10 07:16:53;;;;;;;;;;;;;;;30.77;57.67;100891.28;5079108;27;70215;-33
2021/12/10 07:19:26;;;;;;;;;;;;;;;30.79;57.65;100889.19;5080689;27;66776;-33
2021/12/10 07:21:57;;;;;;;;;;;;;;;30.81;57.86;100881.69;5080846;27;70325;-33
2021/12/10 07:24:27;;;;;;;;;;;;;;;30.84;57.80;100887.50;5077566;27;65700;-33
2021/12/10 07:26:58;;;;;;;;;;;;;;;30.86;57.43;100879.13;5080281;27;69369;-33
2021/12/10 07:29:28;;;;;;;;;;;;;;;30.88;57.85;100879.75;5080403;27;66566;-33
2021/12/10 07:31:58;;;;;;;;;;;;;;;30.90;57.32;100869.53;5079668;27;70828;-33
2021/12/10 07:34:29;;;;;;;;;;;;;;;30.92;57.38;100864.72;5080223;27;66348;-33
2021/12/10 07:36:59;;;;;;;;;;;;;;;30.93;57.36;100869.09;5078587;27;70282;-33
2021/12/10 07:39:30;;;;;;;;;;;;;;;30.94;57.94;100870.75;5078790;27;66670;-33
2021/12/10 07:42:01;;;;;;;;;;;;;;;30.96;57.88;100867.81;5078662;27;69877;-33
2021/12/10 07:44:34;;;;;;;;;;;;;;;30.99;57.28;100846.53;5078091;27;65881;-31
2021/12/10 07:47:09;;;;;;;;;;;;;;;31.00;57.39;100848.19;5079022;27;69395;-33
2021/12/10 07:49:40;;;;;;;;;;;;;;;31.03;57.69;100858.56;5079067;27;66474;-34
2021/12/10 07:52:20;;;;;;;;;;;;;;;31.05;57.77;100856.47;5068342;27;71602;-33
2021/12/10 07:54:51;;;;;;;;;;;;;;;31.07;57.92;100854.38;5076489;27;65429;-33
2021/12/10 07:57:22;;;;;;;;;;;;;;;31.09;57.29;100852.28;5080259;27;69654;-33
2021/12/10 07:59:53;;;;;;;;;;;;;;;31.10;57.72;100853.94;5079909;27;66674;-33
2021/12/10 08:02:24;;;;;;;;;;;;;;;31.12;57.39;100851.84;5080410;27;70287;-33
2021/12/10 08:04:54;;;;;;;;;;;;;;;31.15;57.71;100861.41;5079664;27;66651;-33
2021/12/10 08:07:25;;;;;;;;;;;;;;;31.16;57.09;100849.50;5080215;27;70227;-33
2021/12/10 08:09:55;;;;;;;;;;;;;;;31.18;57.55;100852.81;5079852;27;66426;-33
2021/12/10 08:12:25;;;;;;;;;;;;;;;31.19;57.58;100862.59;5079843;27;70871;-33
2021/12/10 08:14:56;;;;;;;;;;;;;;;31.21;57.57;100856.97;5079585;27;66499;-33
2021/12/10 08:17:26;;;;;;;;;;;;;;;31.21;56.91;100848.84;5079488;27;70612;-33
2021/12/10 08:19:58;;;;;;;;;;;;;;;31.24;56.96;100856.53;5079632;27;66127;-32
2021/12/10 08:22:28;;;;;;;;;;;;;;;31.25;57.20;100858.16;5079164;27;70054;-33
2021/12/10 08:24:59;;;;;;;;;;;;;;;31.25;57.18;100860.88;5080403;27;66422;-33
2021/12/10 08:27:29;;;;;;;;;;;;;;;31.28;57.21;100855.00;5078011;27;70004;-33
2021/12/10 08:30:03;;;;;;;;;;;;;;;31.28;56.69;100858.53;5068589;27;65730;-34
2021/12/10 08:32:34;;;;;;;;;;;;;;;31.30;57.17;100855.63;5060337;27;69412;-38
2021/12/10 08:35:06;;;;;;;;;;;;;;;31.31;56.80;100859.97;5067723;27;65433;-32
2021/12/10 08:37:37;;;;;;;;;;;;;;;31.32;56.88;100859.78;5083321;27;70539;-33
2021/12/10 08:40:09;;;;;;;;;;;;;;;31.34;56.34;100862.25;5081521;27;66141;-33
2021/12/10 08:42:40;;;;;;;;;;;;;;;31.37;56.82;100859.13;5080725;27;70384;-35
2021/12/10 08:45:11;;;;;;;;;;;;;;;31.37;56.30;100856.41;5082234;27;66463;-34
2021/12/10 08:47:42;;;;;;;;;;;;;;;31.14;56.11;100819.91;5082760;27;70114;-33
2021/12/10 08:50:16;;;;;;;;;;;;;;;31.39;56.16;100863.25;5082127;27;66242;-33
2021/12/10 08:52:46;;;;;;;;;;;;;;;31.41;56.18;100863.03;5081914;27;69172;-34
2021/12/10 08:55:17;;;;;;;;;;;;;;;31.42;56.26;100861.97;5080243;27;65699;-33
2021/12/10 08:57:48;;;;;;;;;;;;;;;31.44;56.22;100859.06;5082313;27;68983;-34
2021/12/10 09:00:20;;;;;;;;;;;;;;;31.45;56.70;100860.72;5081773;27;65738;-33
2021/12/10 09:02:52;;;;;;;;;;;;;;;31.45;55.97;100861.53;5081798;27;70408;-33
2021/12/10 09:05:22;;;;;;;;;;;;;;;31.46;56.56;100857.78;5081372;27;66740;-34
2021/12/10 09:07:53;;;;;;;;;;;;;;;31.47;56.13;100864.84;5081274;27;69838;-33
2021/12/10 09:10:25;;;;;;;;;;;;;;;31.48;56.55;100868.38;5079955;27;67053;-33
2021/12/10 09:12:56;;;;;;;;;;;;;;;31.50;55.88;100869.81;5082807;27;70904;-32
2021/12/10 09:15:28;;;;;;;;;;;;;;;31.50;56.03;100869.81;5080104;27;66345;-33
2021/12/10 09:17:59;;;;;;;;;;;;;;;31.51;56.14;100879.63;5081238;27;70522;-33
2021/12/10 09:20:32;;;;;;;;;;;;;;;31.51;55.85;100876.91;5082565;27;66494;-33
2021/12/10 09:23:03;;;;;;;;;;;;;;;31.52;56.06;100877.75;5081069;27;70459;-34
2021/12/10 09:26:09;;;;;;;;;;;;;;;31.53;55.75;100880.22;5060900;27;65211;-33
2021/12/10 09:28:40;;;;;;;;;;;;;;;31.54;56.13;100878.34;5080215;27;69302;-33
2021/12/10 09:31:11;;;;;;;;;;;;;;;31.49;55.72;100873.59;5081246;27;66176;-34
2021/12/10 09:33:42;;;;;;;;;;;;;;;31.54;55.91;100876.47;5063046;28;68582;-33
2021/12/10 09:36:13;;;;;;;;;;;;;;;31.51;55.45;100874.22;5080943;27;66026;-34
2021/12/10 09:38:44;;;;;;;;;;;;;;;31.55;55.97;100878.13;5081395;27;69317;-34
2021/12/10 09:41:16;;;;;;;;;;;;;;;31.55;55.38;100878.13;5081692;27;66926;-33
2021/12/10 09:43:46;;;;;;;;;;;;;;;31.54;55.40;100894.63;5082463;27;69993;-33
2021/12/10 09:46:26;;;;;;;;;;;;;;;31.55;55.43;100897.09;5078150;27;66686;-33
2021/12/10 09:48:57;;;;;;;;;;;;;;;31.55;56.06;100897.09;5079148;27;70539;-33
2021/12/10 09:51:30;;;;;;;;;;;;;;;31.56;56.04;100901.44;5081899;27;66564;-32
2021/12/10 09:54:02;;;;;;;;;;;;;;;31.56;55.69;100903.34;5081313;27;69870;-32
2021/12/10 09:56:33;;;;;;;;;;;;;;;31.55;55.70;100910.66;5080250;27;65667;-33
2021/12/10 09:59:04;;;;;;;;;;;;;;;31.55;55.78;100910.66;5081816;27;69618;-33
2021/12/10 10:01:36;;;;;;;;;;;;;;;31.54;55.75;100911.72;5080926;27;66470;-32
2021/12/10 10:04:10;;;;;;;;;;;;;;;31.54;55.59;100909.00;5082186;27;69694;-33
2021/12/10 10:06:43;;;;;;;;;;;;;;;31.53;55.45;100915.47;5081659;27;66312;-33
2021/12/10 10:09:15;;;;;;;;;;;;;;;31.54;55.19;100910.91;5080581;27;69785;-33
2021/12/10 10:11:53;;;;;;;;;;;;;;;31.52;55.95;100916.53;5079988;27;66093;-33
2021/12/10 10:14:24;;;;;;;;;;;;;;;31.51;55.63;100928.44;5081624;27;70204;-32
2021/12/10 10:16:55;;;;;;;;;;;;;;;31.48;55.63;100922.59;5080147;27;66099;-33
2021/12/10 10:19:35;;;;;;;;;;;;;;;31.48;55.74;100925.31;5079577;27;70205;-33
2021/12/10 10:22:25;;;;;;;;;;;;;;;31.45;55.76;100923.88;5068511;27;65977;-33
2021/12/10 10:24:55;;;;;;;;;;;;;;;31.44;55.83;100934.97;5070796;27;70450;-33
2021/12/10 10:27:30;;;;;;;;;;;;;;;31.42;55.92;100929.75;5081137;27;60469;-34
2021/12/10 10:30:12;;;;;;;;;;;;;;;31.41;55.81;100941.66;5081435;27;70444;-34
2021/12/10 10:32:45;;;;;;;;;;;;;;;31.39;56.13;100943.75;5079986;27;66323;-34
2021/12/10 10:35:17;;;;;;;;;;;;;;;31.36;56.23;100949.63;5080661;27;70421;-35
2021/12/10 10:37:48;;;;;;;;;;;;;;;31.38;56.13;100950.25;5080358;27;66023;-34
2021/12/10 10:40:21;;;;;;;;;;;;;;;31.37;55.68;100951.28;5080283;27;70277;-34
2021/12/10 10:49:43;;;;;;;;;;;;;;;31.32;55.63;100964.66;5076398;27;66924;-34
2021/12/10 10:52:34;;;;;;;;;;;;;;;31.31;56.02;100969.22;5076527;28;70378;-33
2021/12/10 10:55:10;;;;;;;;;;;;;;;31.28;55.23;100975.09;5077076;27;65410;-35
2021/12/10 10:58:01;;;;;;;;;;;;;;;31.15;55.14;100986.06;5078247;27;70075;-35
2021/12/10 11:00:39;;;;;;;;;;;;;;;30.97;56.42;100984.06;5076704;27;65090;-35
2021/12/10 11:03:37;;;;;;;;;;;;;;;30.82;57.85;100983.56;5075147;27;70192;-35
2021/12/10 11:06:15;;;;;;;;;;;;;;;30.72;58.20;100987.50;5075810;27;67279;-34
2021/12/10 11:08:51;;;;;;;;;;;;;;;30.72;58.69;101003.75;5075737;27;70013;-36
2021/12/10 11:11:26;;;;;;;;;;;;;;;30.67;58.80;101011.72;5076388;27;65650;-34
2021/12/10 11:14:03;;;;;;;;;;;;;;;30.63;59.05;101018.59;5074827;27;69508;-35
2021/12/10 11:16:35;;;;;;;;;;;;;;;30.63;59.33;101023.19;5074616;27;65543;-35
2021/12/10 11:19:32;;;;;;;;;;;;;;;30.60;60.34;101032.56;5076604;27;69242;-35
2021/12/10 11:22:11;;;;;;;;;;;;;;;30.55;60.98;101035.09;5074258;27;66706;-36
2021/12/10 11:24:56;;;;;;;;;;;;;;;30.58;61.67;101031.13;5075857;27;70182;-35
2021/12/10 11:27:30;;;;;;;;;;;;;;;30.55;61.46;101035.09;5065455;27;65800;-37
2021/12/10 11:30:04;;;;;;;;;;;;;;;30.54;61.83;101048.84;5086916;27;70238;-35
2021/12/10 11:32:40;;;;;;;;;;;;;;;30.50;61.89;101046.56;5073855;27;65190;-35
2021/12/10 11:35:11;;;;;;;;;;;;;;;30.51;63.00;101050.13;5073315;27;70400;-34
2021/12/10 11:37:49;;;;;;;;;;;;;;;30.49;62.65;101054.91;5073818;27;65434;-35
2021/12/10 11:40:27;;;;;;;;;;;;;;;30.47;62.53;101057.00;5076013;27;69195;-34
2021/12/10 11:43:32;;;;;;;;;;;;;;;30.44;62.19;101070.94;5076348;27;65766;-35
2021/12/10 11:48:54;;;;;;;;;;;;;;;30.40;62.80;101073.25;5074867;27;66958;-37
2021/12/10 11:51:50;;;;;;;;;;;;;;;30.39;62.59;101068.88;5068638;27;70398;-36
2021/12/10 11:54:26;;;;;;;;;;;;;;;30.36;63.17;101074.72;5060975;28;65260;-37
2021/12/10 11:57:19;;;;;;;;;;;;;;;30.35;63.09;101077.66;5075931;27;70285;-35
2021/12/10 12:00:01;;;;;;;;;;;;;;;30.34;63.37;101084.09;5075276;27;65447;-35
2021/12/10 12:02:49;;;;;;;;;;;;;;;30.28;63.50;101077.63;5077357;27;70543;-34
2021/12/10 12:05:21;;;;;;;;;;;;;;;30.26;63.08;101086.00;5076759;27;66385;-34
2021/12/10 12:07:52;;;;;;;;;;;;;;;30.27;63.40;101079.53;5076887;28;70324;-34
2021/12/10 12:10:28;;;;;;;;;;;;;;;30.25;63.53;101076.19;5082445;27;67593;-35
2021/12/10 12:13:10;;;;;;;;;;;;;;;30.24;63.31;101081.81;5083565;27;69872;-34
2021/12/10 12:15:43;;;;;;;;;;;;;;;30.23;64.15;101089.13;5061576;28;64861;-35
2021/12/10 12:18:25;;;;;;;;;;;;;;;30.24;63.83;101090.78;5082299;28;70134;-35
2021/12/10 12:20:55;;;;;;;;;;;;;;;30.17;62.31;101097.19;5082587;27;66213;-35
2021/12/10 12:26:28;;;;;;;;;;;;;;;30.11;62.39;101104.28;5081244;27;66330;-34
2021/12/10 12:29:19;;;;;;;;;;;;;;;30.13;62.11;101107.63;5077730;28;70173;-35
2021/12/10 12:31:52;;;;;;;;;;;;;;;30.12;61.74;101100.56;5040665;28;66273;-34
2021/12/10 12:34:24;;;;;;;;;;;;;;;30.11;62.13;101114.28;5082080;27;69621;-34
2021/12/10 12:37:01;;;;;;;;;;;;;;;30.08;61.48;101112.81;5078025;27;66421;-34
2021/12/10 12:39:45;;;;;;;;;;;;;;;30.05;61.34;101110.53;5080278;27;70013;-34
2021/12/10 12:42:24;;;;;;;;;;;;;;;29.93;60.23;101104.09;5079462;27;67232;-34
2021/12/10 12:45:00;;;;;;;;;;;;;;;29.89;61.13;101110.94;5082335;27;69695;-35
2021/12/10 12:47:52;;;;;;;;;;;;;;;29.58;60.72;101077.22;5079357;28;65741;-34
2021/12/10 12:50:44;;;;;;;;;;;;;;;29.75;60.56;101113.66;5080185;28;69833;-35
2021/12/10 12:53:20;;;;;;;;;;;;;;;29.74;60.59;101116.56;5080436;27;66899;-34
2021/12/10 12:56:07;;;;;;;;;;;;;;;29.71;60.66;101109.72;5069567;27;70350;-37
2021/12/10 12:59:05;;;;;;;;;;;;;;;29.67;60.69;101119.28;5087667;27;66671;-33
2021/12/10 13:01:48;;;;;;;;;;;;;;;29.69;60.81;101119.88;5079475;27;70329;-34
2021/12/10 13:04:28;;;;;;;;;;;;;;;29.67;61.32;101113.88;5070663;27;66380;-35
2021/12/10 13:07:20;;;;;;;;;;;;;;;29.70;61.41;101124.28;5078629;27;69980;-37
2021/12/10 13:09:56;;;;;;;;;;;;;;;29.66;62.08;101120.31;5061782;28;65694;-34
2021/12/10 13:12:40;;;;;;;;;;;;;;;29.67;61.75;101127.41;5079309;27;70578;-34
2021/12/10 13:15:14;;;;;;;;;;;;;;;29.61;61.96;101133.56;5078383;27;66270;-35
2021/12/10 13:17:49;;;;;;;;;;;;;;;29.60;61.74;101140.03;5064178;28;70867;-36
2021/12/10 13:20:31;;;;;;;;;;;;;;;29.58;62.16;101142.09;5079970;27;67219;-35
2021/12/10 13:23:06;;;;;;;;;;;;;;;29.56;62.47;101150.44;5079102;27;70826;-34
2021/12/10 13:25:38;;;;;;;;;;;;;;;29.53;62.36;101142.72;5078490;27;66955;-35
2021/12/10 13:28:26;;;;;;;;;;;;;;;29.53;63.20;101153.53;5078604;27;69266;-36
2021/12/10 13:30:59;;;;;;;;;;;;;;;29.49;63.48;101160.38;5079281;27;66503;-35
2021/12/10 13:33:34;;;;;;;;;;;;;;;29.59;64.41;101157.28;5076466;27;70323;-33